sensor_id;sensor_type;location;lat;lon;timestamp;P1;durP1;ratioP1;P2;durP2;ratioP2
80217;SDS011;69533;37.974;23.708;2023-04-25T00:01:17;6.72;;;4.72;;
80217;SDS011;69533;37.974;23.708;2023-04-25T00:03:43;5.55;;;4.47;;
80217;SDS011;69533;37.974;23.708;2023-04-25T00:06:10;6.05;;;4.38;;
80217;SDS011;69533;37.974;23.708;2023-04-25T00:08:37;6.70;;;4.63;;
80217;SDS011;69533;37.974;23.708;2023-04-25T00:11:03;6.85;;;4.97;;
80217;SDS011;69533;37.974;23.708;2023-04-25T00:13:29;8.10;;;5.22;;
80217;SDS011;69533;37.974;23.708;2023-04-25T00:15:54;6.90;;;4.80;;
80217;SDS011;69533;37.974;23.708;2023-04-25T00:18:21;6.40;;;4.30;;
80217;SDS011;69533;37.974;23.708;2023-04-25T00:20:47;5.10;;;4.50;;
80217;SDS011;69533;37.974;23.708;2023-04-25T00:23:13;7.05;;;4.43;;
80217;SDS011;69533;37.974;23.708;2023-04-25T00:25:42;7.28;;;4.68;;
80217;SDS011;69533;37.974;23.708;2023-04-25T00:28:12;6.45;;;4.93;;
80217;SDS011;69533;37.974;23.708;2023-04-25T00:30:38;5.40;;;4.70;;
80217;SDS011;69533;37.974;23.708;2023-04-25T00:33:04;5.35;;;4.57;;
80217;SDS011;69533;37.974;23.708;2023-04-25T00:35:30;5.93;;;4.95;;
80217;SDS011;69533;37.974;23.708;2023-04-25T00:37:56;7.00;;;4.80;;
80217;SDS011;69533;37.974;23.708;2023-04-25T00:40:22;5.63;;;4.82;;
80217;SDS011;69533;37.974;23.708;2023-04-25T00:42:47;5.60;;;4.43;;
80217;SDS011;69533;37.974;23.708;2023-04-25T00:45:14;4.60;;;4.20;;
80217;SDS011;69533;37.974;23.708;2023-04-25T00:47:41;5.88;;;4.50;;
80217;SDS011;69533;37.974;23.708;2023-04-25T00:50:07;6.10;;;4.18;;
80217;SDS011;69533;37.974;23.708;2023-04-25T00:52:33;4.90;;;4.32;;
80217;SDS011;69533;37.974;23.708;2023-04-25T00:54:59;5.28;;;4.82;;
80217;SDS011;69533;37.974;23.708;2023-04-25T00:57:25;5.82;;;4.35;;
80217;SDS011;69533;37.974;23.708;2023-04-25T00:59:51;6.32;;;4.45;;
80217;SDS011;69533;37.974;23.708;2023-04-25T01:02:19;7.15;;;4.82;;
80217;SDS011;69533;37.974;23.708;2023-04-25T01:04:45;5.28;;;4.28;;
80217;SDS011;69533;37.974;23.708;2023-04-25T01:07:12;5.97;;;4.35;;
80217;SDS011;69533;37.974;23.708;2023-04-25T01:09:38;6.25;;;4.32;;
80217;SDS011;69533;37.974;23.708;2023-04-25T01:12:04;6.15;;;4.32;;
80217;SDS011;69533;37.974;23.708;2023-04-25T01:14:30;5.63;;;4.03;;
80217;SDS011;69533;37.974;23.708;2023-04-25T01:16:56;6.93;;;4.40;;
80217;SDS011;69533;37.974;23.708;2023-04-25T01:19:22;5.05;;;4.50;;
80217;SDS011;69533;37.974;23.708;2023-04-25T01:21:49;6.85;;;4.70;;
80217;SDS011;69533;37.974;23.708;2023-04-25T01:24:16;4.20;;;3.80;;
80217;SDS011;69533;37.974;23.708;2023-04-25T01:26:41;6.18;;;4.22;;
80217;SDS011;69533;37.974;23.708;2023-04-25T01:29:18;8.60;;;5.20;;
80217;SDS011;69533;37.974;23.708;2023-04-25T01:31:44;8.68;;;4.68;;
80217;SDS011;69533;37.974;23.708;2023-04-25T01:34:11;5.72;;;4.20;;
80217;SDS011;69533;37.974;23.708;2023-04-25T01:36:37;6.00;;;3.80;;
80217;SDS011;69533;37.974;23.708;2023-04-25T01:39:03;6.35;;;4.55;;
80217;SDS011;69533;37.974;23.708;2023-04-25T01:41:29;5.88;;;4.38;;
80217;SDS011;69533;37.974;23.708;2023-04-25T01:43:55;6.72;;;4.10;;
80217;SDS011;69533;37.974;23.708;2023-04-25T01:46:21;6.38;;;4.28;;
80217;SDS011;69533;37.974;23.708;2023-04-25T01:48:47;4.72;;;4.25;;
80217;SDS011;69533;37.974;23.708;2023-04-25T01:51:13;6.38;;;4.20;;
80217;SDS011;69533;37.974;23.708;2023-04-25T01:53:39;5.57;;;4.43;;
80217;SDS011;69533;37.974;23.708;2023-04-25T01:56:05;5.82;;;4.07;;
80217;SDS011;69533;37.974;23.708;2023-04-25T01:58:31;6.20;;;4.20;;
80217;SDS011;69533;37.974;23.708;2023-04-25T02:00:56;5.80;;;4.45;;
80217;SDS011;69533;37.974;23.708;2023-04-25T02:03:22;4.38;;;3.78;;
80217;SDS011;69533;37.974;23.708;2023-04-25T02:05:48;5.75;;;3.90;;
80217;SDS011;69533;37.974;23.708;2023-04-25T02:08:14;4.75;;;3.60;;
80217;SDS011;69533;37.974;23.708;2023-04-25T02:10:41;5.55;;;4.40;;
80217;SDS011;69533;37.974;23.708;2023-04-25T02:13:07;4.82;;;4.28;;
80217;SDS011;69533;37.974;23.708;2023-04-25T02:15:32;4.95;;;4.47;;
80217;SDS011;69533;37.974;23.708;2023-04-25T02:17:58;5.38;;;4.10;;
80217;SDS011;69533;37.974;23.708;2023-04-25T02:20:25;5.55;;;4.38;;
80217;SDS011;69533;37.974;23.708;2023-04-25T02:22:51;6.22;;;4.45;;
80217;SDS011;69533;37.974;23.708;2023-04-25T02:25:17;4.20;;;3.80;;
80217;SDS011;69533;37.974;23.708;2023-04-25T02:27:45;5.45;;;3.70;;
80217;SDS011;69533;37.974;23.708;2023-04-25T02:30:11;5.18;;;4.05;;
80217;SDS011;69533;37.974;23.708;2023-04-25T02:32:38;4.88;;;4.03;;
80217;SDS011;69533;37.974;23.708;2023-04-25T02:35:04;5.05;;;3.90;;
80217;SDS011;69533;37.974;23.708;2023-04-25T02:37:31;6.05;;;3.92;;
80217;SDS011;69533;37.974;23.708;2023-04-25T02:39:58;4.47;;;3.97;;
80217;SDS011;69533;37.974;23.708;2023-04-25T02:42:24;5.15;;;3.80;;
80217;SDS011;69533;37.974;23.708;2023-04-25T02:44:50;6.57;;;4.38;;
80217;SDS011;69533;37.974;23.708;2023-04-25T02:47:16;6.10;;;4.22;;
80217;SDS011;69533;37.974;23.708;2023-04-25T02:49:42;6.25;;;4.40;;
80217;SDS011;69533;37.974;23.708;2023-04-25T02:52:07;8.20;;;4.00;;
80217;SDS011;69533;37.974;23.708;2023-04-25T02:54:34;5.45;;;4.18;;
80217;SDS011;69533;37.974;23.708;2023-04-25T02:57:00;5.75;;;4.10;;
80217;SDS011;69533;37.974;23.708;2023-04-25T02:59:27;4.22;;;3.65;;
80217;SDS011;69533;37.974;23.708;2023-04-25T03:01:53;6.22;;;4.07;;
80217;SDS011;69533;37.974;23.708;2023-04-25T03:04:19;5.22;;;3.80;;
80217;SDS011;69533;37.974;23.708;2023-04-25T03:06:46;6.38;;;4.25;;
80217;SDS011;69533;37.974;23.708;2023-04-25T03:09:12;6.53;;;4.00;;
80217;SDS011;69533;37.974;23.708;2023-04-25T03:11:40;5.93;;;4.07;;
80217;SDS011;69533;37.974;23.708;2023-04-25T03:14:06;6.57;;;4.18;;
80217;SDS011;69533;37.974;23.708;2023-04-25T03:16:32;7.35;;;4.07;;
80217;SDS011;69533;37.974;23.708;2023-04-25T03:18:58;8.68;;;3.90;;
80217;SDS011;69533;37.974;23.708;2023-04-25T03:21:24;6.25;;;4.15;;
80217;SDS011;69533;37.974;23.708;2023-04-25T03:23:51;9.23;;;4.00;;
80217;SDS011;69533;37.974;23.708;2023-04-25T03:26:17;6.75;;;4.28;;
80217;SDS011;69533;37.974;23.708;2023-04-25T03:28:43;5.70;;;4.20;;
80217;SDS011;69533;37.974;23.708;2023-04-25T03:31:09;4.95;;;4.10;;
80217;SDS011;69533;37.974;23.708;2023-04-25T03:33:34;4.55;;;3.85;;
80217;SDS011;69533;37.974;23.708;2023-04-25T03:36:00;9.50;;;4.20;;
80217;SDS011;69533;37.974;23.708;2023-04-25T03:38:26;7.72;;;4.38;;
80217;SDS011;69533;37.974;23.708;2023-04-25T03:40:52;9.75;;;3.92;;
80217;SDS011;69533;37.974;23.708;2023-04-25T03:43:18;5.90;;;3.60;;
80217;SDS011;69533;37.974;23.708;2023-04-25T03:45:43;7.80;;;4.68;;
80217;SDS011;69533;37.974;23.708;2023-04-25T03:48:09;7.50;;;4.68;;
80217;SDS011;69533;37.974;23.708;2023-04-25T03:50:35;6.47;;;3.70;;
80217;SDS011;69533;37.974;23.708;2023-04-25T03:53:01;6.82;;;4.13;;
80217;SDS011;69533;37.974;23.708;2023-04-25T03:55:26;5.88;;;3.78;;
80217;SDS011;69533;37.974;23.708;2023-04-25T03:57:52;6.55;;;4.20;;
80217;SDS011;69533;37.974;23.708;2023-04-25T04:00:18;6.47;;;3.95;;
80217;SDS011;69533;37.974;23.708;2023-04-25T04:02:43;6.10;;;4.20;;
80217;SDS011;69533;37.974;23.708;2023-04-25T04:05:09;11.10;;;4.53;;
80217;SDS011;69533;37.974;23.708;2023-04-25T04:07:35;18.30;;;4.78;;
80217;SDS011;69533;37.974;23.708;2023-04-25T04:10:05;8.55;;;4.50;;
80217;SDS011;69533;37.974;23.708;2023-04-25T04:12:32;6.80;;;4.45;;
80217;SDS011;69533;37.974;23.708;2023-04-25T04:14:58;10.38;;;4.65;;
80217;SDS011;69533;37.974;23.708;2023-04-25T04:17:24;10.40;;;4.13;;
80217;SDS011;69533;37.974;23.708;2023-04-25T04:19:50;11.93;;;4.80;;
80217;SDS011;69533;37.974;23.708;2023-04-25T04:22:16;15.98;;;5.45;;
80217;SDS011;69533;37.974;23.708;2023-04-25T04:24:41;22.50;;;5.97;;
80217;SDS011;69533;37.974;23.708;2023-04-25T04:27:11;25.90;;;5.63;;
80217;SDS011;69533;37.974;23.708;2023-04-25T04:29:38;17.63;;;4.68;;
80217;SDS011;69533;37.974;23.708;2023-04-25T04:32:03;14.52;;;4.72;;
80217;SDS011;69533;37.974;23.708;2023-04-25T04:34:29;10.68;;;4.50;;
80217;SDS011;69533;37.974;23.708;2023-04-25T04:36:56;13.13;;;5.78;;
80217;SDS011;69533;37.974;23.708;2023-04-25T04:39:22;16.13;;;4.53;;
80217;SDS011;69533;37.974;23.708;2023-04-25T04:41:48;10.73;;;5.03;;
80217;SDS011;69533;37.974;23.708;2023-04-25T04:44:14;12.35;;;4.22;;
80217;SDS011;69533;37.974;23.708;2023-04-25T04:46:40;11.02;;;4.85;;
80217;SDS011;69533;37.974;23.708;2023-04-25T04:49:10;14.82;;;5.90;;
80217;SDS011;69533;37.974;23.708;2023-04-25T04:51:37;8.52;;;4.30;;
80217;SDS011;69533;37.974;23.708;2023-04-25T04:54:03;11.93;;;5.78;;
80217;SDS011;69533;37.974;23.708;2023-04-25T04:56:29;9.18;;;4.50;;
80217;SDS011;69533;37.974;23.708;2023-04-25T04:58:58;9.13;;;4.13;;
80217;SDS011;69533;37.974;23.708;2023-04-25T05:01:25;8.18;;;4.25;;
80217;SDS011;69533;37.974;23.708;2023-04-25T05:03:51;8.35;;;4.28;;
80217;SDS011;69533;37.974;23.708;2023-04-25T05:06:18;10.75;;;4.57;;
80217;SDS011;69533;37.974;23.708;2023-04-25T05:08:44;7.63;;;4.32;;
80217;SDS011;69533;37.974;23.708;2023-04-25T05:11:10;12.50;;;5.07;;
80217;SDS011;69533;37.974;23.708;2023-04-25T05:13:36;11.13;;;4.30;;
80217;SDS011;69533;37.974;23.708;2023-04-25T05:16:02;10.57;;;5.20;;
80217;SDS011;69533;37.974;23.708;2023-04-25T05:18:28;8.18;;;4.70;;
80217;SDS011;69533;37.974;23.708;2023-04-25T05:20:54;10.98;;;4.95;;
80217;SDS011;69533;37.974;23.708;2023-04-25T05:23:20;9.40;;;6.53;;
80217;SDS011;69533;37.974;23.708;2023-04-25T05:25:47;6.53;;;4.63;;
80217;SDS011;69533;37.974;23.708;2023-04-25T05:28:12;8.00;;;4.55;;
80217;SDS011;69533;37.974;23.708;2023-04-25T05:30:38;10.13;;;4.82;;
80217;SDS011;69533;37.974;23.708;2023-04-25T05:33:04;8.00;;;4.72;;
80217;SDS011;69533;37.974;23.708;2023-04-25T05:35:30;9.80;;;4.57;;
80217;SDS011;69533;37.974;23.708;2023-04-25T05:37:56;8.43;;;4.57;;
80217;SDS011;69533;37.974;23.708;2023-04-25T05:40:22;5.30;;;4.18;;
80217;SDS011;69533;37.974;23.708;2023-04-25T05:42:47;5.53;;;4.43;;
80217;SDS011;69533;37.974;23.708;2023-04-25T05:45:13;6.70;;;3.83;;
80217;SDS011;69533;37.974;23.708;2023-04-25T05:47:39;6.55;;;3.67;;
80217;SDS011;69533;37.974;23.708;2023-04-25T05:50:05;8.10;;;3.60;;
80217;SDS011;69533;37.974;23.708;2023-04-25T05:52:32;7.65;;;3.90;;
80217;SDS011;69533;37.974;23.708;2023-04-25T05:54:58;5.25;;;3.58;;
80217;SDS011;69533;37.974;23.708;2023-04-25T05:57:24;8.82;;;3.60;;
80217;SDS011;69533;37.974;23.708;2023-04-25T05:59:51;5.10;;;3.72;;
80217;SDS011;69533;37.974;23.708;2023-04-25T06:02:18;8.23;;;3.22;;
80217;SDS011;69533;37.974;23.708;2023-04-25T06:04:48;6.38;;;2.92;;
80217;SDS011;69533;37.974;23.708;2023-04-25T06:07:15;5.00;;;3.38;;
80217;SDS011;69533;37.974;23.708;2023-04-25T06:09:43;5.32;;;2.67;;
80217;SDS011;69533;37.974;23.708;2023-04-25T06:12:09;3.67;;;2.75;;
80217;SDS011;69533;37.974;23.708;2023-04-25T06:14:35;4.38;;;2.63;;
80217;SDS011;69533;37.974;23.708;2023-04-25T06:17:02;4.72;;;2.60;;
80217;SDS011;69533;37.974;23.708;2023-04-25T06:19:35;4.53;;;2.42;;
80217;SDS011;69533;37.974;23.708;2023-04-25T06:22:01;5.50;;;2.63;;
80217;SDS011;69533;37.974;23.708;2023-04-25T06:24:27;5.38;;;1.98;;
80217;SDS011;69533;37.974;23.708;2023-04-25T06:26:53;3.28;;;1.85;;
80217;SDS011;69533;37.974;23.708;2023-04-25T06:29:19;2.95;;;1.73;;
80217;SDS011;69533;37.974;23.708;2023-04-25T06:31:45;3.00;;;2.00;;
80217;SDS011;69533;37.974;23.708;2023-04-25T06:34:11;4.38;;;1.73;;
80217;SDS011;69533;37.974;23.708;2023-04-25T06:36:37;2.75;;;1.77;;
80217;SDS011;69533;37.974;23.708;2023-04-25T06:39:02;5.13;;;1.88;;
80217;SDS011;69533;37.974;23.708;2023-04-25T06:41:28;2.13;;;1.80;;
80217;SDS011;69533;37.974;23.708;2023-04-25T06:43:55;3.47;;;1.92;;
80217;SDS011;69533;37.974;23.708;2023-04-25T06:46:21;3.00;;;1.77;;
80217;SDS011;69533;37.974;23.708;2023-04-25T06:48:47;3.33;;;2.22;;
80217;SDS011;69533;37.974;23.708;2023-04-25T06:51:13;4.50;;;2.15;;
80217;SDS011;69533;37.974;23.708;2023-04-25T06:53:39;3.05;;;1.85;;
80217;SDS011;69533;37.974;23.708;2023-04-25T06:56:05;2.30;;;1.60;;
80217;SDS011;69533;37.974;23.708;2023-04-25T06:58:31;4.65;;;1.70;;
80217;SDS011;69533;37.974;23.708;2023-04-25T07:00:57;3.65;;;2.17;;
80217;SDS011;69533;37.974;23.708;2023-04-25T07:03:23;2.85;;;2.35;;
80217;SDS011;69533;37.974;23.708;2023-04-25T07:05:49;5.32;;;2.40;;
80217;SDS011;69533;37.974;23.708;2023-04-25T07:08:15;5.93;;;2.63;;
80217;SDS011;69533;37.974;23.708;2023-04-25T07:10:43;2.95;;;2.10;;
80217;SDS011;69533;37.974;23.708;2023-04-25T07:13:11;3.70;;;2.30;;
80217;SDS011;69533;37.974;23.708;2023-04-25T07:15:37;4.40;;;2.60;;
80217;SDS011;69533;37.974;23.708;2023-04-25T07:18:03;2.20;;;2.00;;
80217;SDS011;69533;37.974;23.708;2023-04-25T07:20:28;3.00;;;2.38;;
80217;SDS011;69533;37.974;23.708;2023-04-25T07:22:56;4.32;;;2.33;;
80217;SDS011;69533;37.974;23.708;2023-04-25T07:25:22;4.05;;;1.98;;
80217;SDS011;69533;37.974;23.708;2023-04-25T07:27:47;2.00;;;1.73;;
80217;SDS011;69533;37.974;23.708;2023-04-25T07:30:13;4.20;;;1.90;;
80217;SDS011;69533;37.974;23.708;2023-04-25T07:32:39;3.10;;;1.95;;
80217;SDS011;69533;37.974;23.708;2023-04-25T07:35:05;2.35;;;1.98;;
80217;SDS011;69533;37.974;23.708;2023-04-25T07:37:32;5.18;;;2.10;;
80217;SDS011;69533;37.974;23.708;2023-04-25T07:39:59;2.75;;;1.77;;
80217;SDS011;69533;37.974;23.708;2023-04-25T07:42:24;4.05;;;2.10;;
80217;SDS011;69533;37.974;23.708;2023-04-25T07:44:50;3.75;;;2.60;;
80217;SDS011;69533;37.974;23.708;2023-04-25T07:47:16;3.45;;;2.17;;
80217;SDS011;69533;37.974;23.708;2023-04-25T07:49:44;2.08;;;1.48;;
80217;SDS011;69533;37.974;23.708;2023-04-25T07:52:12;2.30;;;1.80;;
80217;SDS011;69533;37.974;23.708;2023-04-25T07:54:37;4.93;;;2.08;;
80217;SDS011;69533;37.974;23.708;2023-04-25T07:57:03;3.67;;;1.98;;
80217;SDS011;69533;37.974;23.708;2023-04-25T07:59:32;1.95;;;1.63;;
80217;SDS011;69533;37.974;23.708;2023-04-25T08:01:57;2.17;;;1.63;;
80217;SDS011;69533;37.974;23.708;2023-04-25T08:04:23;2.58;;;1.60;;
80217;SDS011;69533;37.974;23.708;2023-04-25T08:06:50;2.88;;;1.70;;
80217;SDS011;69533;37.974;23.708;2023-04-25T08:09:17;3.00;;;1.83;;
80217;SDS011;69533;37.974;23.708;2023-04-25T08:11:43;5.13;;;1.83;;
80217;SDS011;69533;37.974;23.708;2023-04-25T08:14:08;2.22;;;1.80;;
80217;SDS011;69533;37.974;23.708;2023-04-25T08:16:34;2.60;;;1.92;;
80217;SDS011;69533;37.974;23.708;2023-04-25T08:19:00;5.63;;;1.90;;
80217;SDS011;69533;37.974;23.708;2023-04-25T08:21:26;3.08;;;1.70;;
80217;SDS011;69533;37.974;23.708;2023-04-25T08:23:54;2.22;;;1.50;;
80217;SDS011;69533;37.974;23.708;2023-04-25T08:26:20;3.28;;;1.60;;
80217;SDS011;69533;37.974;23.708;2023-04-25T08:28:46;1.88;;;1.70;;
80217;SDS011;69533;37.974;23.708;2023-04-25T08:31:12;1.90;;;1.70;;
80217;SDS011;69533;37.974;23.708;2023-04-25T08:33:38;3.20;;;1.70;;
80217;SDS011;69533;37.974;23.708;2023-04-25T08:36:03;3.10;;;1.90;;
80217;SDS011;69533;37.974;23.708;2023-04-25T08:38:29;3.65;;;1.83;;
80217;SDS011;69533;37.974;23.708;2023-04-25T08:40:55;2.97;;;1.80;;
80217;SDS011;69533;37.974;23.708;2023-04-25T08:43:24;2.17;;;1.50;;
80217;SDS011;69533;37.974;23.708;2023-04-25T08:45:50;2.10;;;1.90;;
80217;SDS011;69533;37.974;23.708;2023-04-25T08:48:21;1.75;;;1.58;;
80217;SDS011;69533;37.974;23.708;2023-04-25T08:50:52;1.50;;;1.40;;
80217;SDS011;69533;37.974;23.708;2023-04-25T08:53:21;2.60;;;1.70;;
80217;SDS011;69533;37.974;23.708;2023-04-25T08:55:50;2.47;;;2.00;;
80217;SDS011;69533;37.974;23.708;2023-04-25T08:58:18;3.92;;;1.50;;
80217;SDS011;69533;37.974;23.708;2023-04-25T09:00:45;5.82;;;1.70;;
80217;SDS011;69533;37.974;23.708;2023-04-25T09:03:12;2.42;;;1.83;;
80217;SDS011;69533;37.974;23.708;2023-04-25T09:05:39;2.13;;;1.77;;
80217;SDS011;69533;37.974;23.708;2023-04-25T09:08:06;2.67;;;1.52;;
80217;SDS011;69533;37.974;23.708;2023-04-25T09:10:32;4.32;;;1.70;;
80217;SDS011;69533;37.974;23.708;2023-04-25T09:13:05;2.08;;;1.70;;
80217;SDS011;69533;37.974;23.708;2023-04-25T09:15:34;2.88;;;1.73;;
80217;SDS011;69533;37.974;23.708;2023-04-25T09:18:11;4.10;;;1.80;;
80217;SDS011;69533;37.974;23.708;2023-04-25T09:20:41;2.75;;;1.58;;
80217;SDS011;69533;37.974;23.708;2023-04-25T09:23:08;3.38;;;1.65;;
80217;SDS011;69533;37.974;23.708;2023-04-25T09:25:34;5.75;;;1.50;;
80217;SDS011;69533;37.974;23.708;2023-04-25T09:28:07;1.60;;;1.50;;
80217;SDS011;69533;37.974;23.708;2023-04-25T09:30:35;3.10;;;1.77;;
80217;SDS011;69533;37.974;23.708;2023-04-25T09:33:09;2.00;;;1.83;;
80217;SDS011;69533;37.974;23.708;2023-04-25T09:35:51;5.30;;;1.90;;
80217;SDS011;69533;37.974;23.708;2023-04-25T09:38:20;3.88;;;1.98;;
80217;SDS011;69533;37.974;23.708;2023-04-25T09:40:46;5.88;;;2.58;;
80217;SDS011;69533;37.974;23.708;2023-04-25T09:43:24;3.25;;;2.30;;
80217;SDS011;69533;37.974;23.708;2023-04-25T09:45:53;5.30;;;2.00;;
80217;SDS011;69533;37.974;23.708;2023-04-25T09:48:24;4.85;;;2.05;;
80217;SDS011;69533;37.974;23.708;2023-04-25T09:53:42;4.95;;;2.00;;
80217;SDS011;69533;37.974;23.708;2023-04-25T09:56:11;3.55;;;2.08;;
80217;SDS011;69533;37.974;23.708;2023-04-25T09:58:38;5.65;;;2.00;;
80217;SDS011;69533;37.974;23.708;2023-04-25T10:01:06;5.93;;;2.92;;
80217;SDS011;69533;37.974;23.708;2023-04-25T10:03:34;2.28;;;2.08;;
80217;SDS011;69533;37.974;23.708;2023-04-25T10:06:01;2.42;;;1.80;;
80217;SDS011;69533;37.974;23.708;2023-04-25T10:08:36;2.55;;;1.70;;
80217;SDS011;69533;37.974;23.708;2023-04-25T10:11:03;5.07;;;1.77;;
80217;SDS011;69533;37.974;23.708;2023-04-25T10:13:32;3.75;;;1.70;;
80217;SDS011;69533;37.974;23.708;2023-04-25T10:15:59;2.65;;;1.80;;
80217;SDS011;69533;37.974;23.708;2023-04-25T10:18:26;1.95;;;1.60;;
80217;SDS011;69533;37.974;23.708;2023-04-25T10:20:54;2.67;;;2.08;;
80217;SDS011;69533;37.974;23.708;2023-04-25T10:23:21;3.05;;;1.90;;
80217;SDS011;69533;37.974;23.708;2023-04-25T10:25:48;2.30;;;1.65;;
80217;SDS011;69533;37.974;23.708;2023-04-25T10:28:18;1.88;;;1.67;;
80217;SDS011;69533;37.974;23.708;2023-04-25T10:31:04;2.63;;;1.80;;
80217;SDS011;69533;37.974;23.708;2023-04-25T10:33:33;2.15;;;1.63;;
80217;SDS011;69533;37.974;23.708;2023-04-25T10:38:47;3.17;;;2.10;;
80217;SDS011;69533;37.974;23.708;2023-04-25T10:41:15;2.15;;;1.77;;
80217;SDS011;69533;37.974;23.708;2023-04-25T10:43:44;3.45;;;1.80;;
80217;SDS011;69533;37.974;23.708;2023-04-25T10:46:18;4.32;;;2.15;;
80217;SDS011;69533;37.974;23.708;2023-04-25T10:51:25;5.45;;;2.22;;
80217;SDS011;69533;37.974;23.708;2023-04-25T10:56:21;8.88;;;2.05;;
80217;SDS011;69533;37.974;23.708;2023-04-25T10:58:48;2.22;;;1.67;;
80217;SDS011;69533;37.974;23.708;2023-04-25T11:01:15;3.65;;;2.00;;
80217;SDS011;69533;37.974;23.708;2023-04-25T11:03:56;3.20;;;1.92;;
80217;SDS011;69533;37.974;23.708;2023-04-25T11:06:37;4.50;;;2.05;;
80217;SDS011;69533;37.974;23.708;2023-04-25T11:11:42;3.47;;;2.15;;
80217;SDS011;69533;37.974;23.708;2023-04-25T11:14:19;3.17;;;1.58;;
80217;SDS011;69533;37.974;23.708;2023-04-25T11:16:45;3.20;;;1.80;;
80217;SDS011;69533;37.974;23.708;2023-04-25T11:19:11;4.57;;;1.98;;
80217;SDS011;69533;37.974;23.708;2023-04-25T11:21:36;1.98;;;1.65;;
80217;SDS011;69533;37.974;23.708;2023-04-25T11:24:02;3.38;;;1.90;;
80217;SDS011;69533;37.974;23.708;2023-04-25T11:26:29;4.00;;;1.88;;
80217;SDS011;69533;37.974;23.708;2023-04-25T11:28:59;3.55;;;1.77;;
80217;SDS011;69533;37.974;23.708;2023-04-25T11:31:28;5.15;;;2.00;;
80217;SDS011;69533;37.974;23.708;2023-04-25T11:33:58;3.72;;;1.75;;
80217;SDS011;69533;37.974;23.708;2023-04-25T11:36:24;3.63;;;1.98;;
80217;SDS011;69533;37.974;23.708;2023-04-25T11:38:51;2.72;;;1.77;;
80217;SDS011;69533;37.974;23.708;2023-04-25T11:41:18;1.80;;;1.70;;
80217;SDS011;69533;37.974;23.708;2023-04-25T11:43:45;4.13;;;1.60;;
80217;SDS011;69533;37.974;23.708;2023-04-25T11:46:11;3.70;;;1.77;;
80217;SDS011;69533;37.974;23.708;2023-04-25T11:48:40;3.85;;;1.60;;
80217;SDS011;69533;37.974;23.708;2023-04-25T11:51:07;2.13;;;1.50;;
80217;SDS011;69533;37.974;23.708;2023-04-25T11:53:33;4.57;;;1.70;;
80217;SDS011;69533;37.974;23.708;2023-04-25T11:56:00;3.13;;;1.58;;
80217;SDS011;69533;37.974;23.708;2023-04-25T11:58:26;6.15;;;1.50;;
80217;SDS011;69533;37.974;23.708;2023-04-25T12:00:52;4.05;;;1.58;;
80217;SDS011;69533;37.974;23.708;2023-04-25T12:03:19;2.38;;;1.45;;
80217;SDS011;69533;37.974;23.708;2023-04-25T12:05:45;5.15;;;1.73;;
80217;SDS011;69533;37.974;23.708;2023-04-25T12:08:15;1.55;;;1.38;;
80217;SDS011;69533;37.974;23.708;2023-04-25T12:10:45;3.28;;;1.60;;
80217;SDS011;69533;37.974;23.708;2023-04-25T12:13:21;3.60;;;1.90;;
80217;SDS011;69533;37.974;23.708;2023-04-25T12:15:49;1.83;;;1.60;;
80217;SDS011;69533;37.974;23.708;2023-04-25T12:18:18;4.90;;;1.60;;
80217;SDS011;69533;37.974;23.708;2023-04-25T12:20:53;3.55;;;1.50;;
80217;SDS011;69533;37.974;23.708;2023-04-25T12:23:26;3.90;;;1.83;;
80217;SDS011;69533;37.974;23.708;2023-04-25T12:25:53;4.60;;;2.57;;
80217;SDS011;69533;37.974;23.708;2023-04-25T12:31:05;3.88;;;2.05;;
80217;SDS011;69533;37.974;23.708;2023-04-25T12:35:57;3.80;;;1.70;;
80217;SDS011;69533;37.974;23.708;2023-04-25T12:38:27;4.45;;;1.90;;
80217;SDS011;69533;37.974;23.708;2023-04-25T12:40:59;2.92;;;1.88;;
80217;SDS011;69533;37.974;23.708;2023-04-25T12:43:25;2.95;;;2.22;;
80217;SDS011;69533;37.974;23.708;2023-04-25T12:45:54;2.90;;;1.70;;
80217;SDS011;69533;37.974;23.708;2023-04-25T12:48:21;1.85;;;1.70;;
80217;SDS011;69533;37.974;23.708;2023-04-25T12:50:47;2.95;;;1.83;;
80217;SDS011;69533;37.974;23.708;2023-04-25T12:53:17;2.53;;;1.50;;
80217;SDS011;69533;37.974;23.708;2023-04-25T12:55:55;4.43;;;1.65;;
80217;SDS011;69533;37.974;23.708;2023-04-25T12:58:24;1.85;;;1.50;;
80217;SDS011;69533;37.974;23.708;2023-04-25T13:00:49;3.80;;;1.88;;
80217;SDS011;69533;37.974;23.708;2023-04-25T13:03:15;3.50;;;2.13;;
80217;SDS011;69533;37.974;23.708;2023-04-25T13:05:41;2.28;;;1.67;;
80217;SDS011;69533;37.974;23.708;2023-04-25T13:08:07;1.90;;;1.70;;
80217;SDS011;69533;37.974;23.708;2023-04-25T13:10:33;3.10;;;1.67;;
80217;SDS011;69533;37.974;23.708;2023-04-25T13:12:59;2.92;;;2.00;;
80217;SDS011;69533;37.974;23.708;2023-04-25T13:15:26;3.35;;;1.83;;
80217;SDS011;69533;37.974;23.708;2023-04-25T13:17:52;2.78;;;1.73;;
80217;SDS011;69533;37.974;23.708;2023-04-25T13:20:17;12.95;;;2.13;;
80217;SDS011;69533;37.974;23.708;2023-04-25T13:22:47;4.07;;;2.58;;
80217;SDS011;69533;37.974;23.708;2023-04-25T13:25:13;5.60;;;2.30;;
80217;SDS011;69533;37.974;23.708;2023-04-25T13:27:38;3.75;;;2.33;;
80217;SDS011;69533;37.974;23.708;2023-04-25T13:30:05;5.57;;;1.92;;
80217;SDS011;69533;37.974;23.708;2023-04-25T13:32:33;2.92;;;1.83;;
80217;SDS011;69533;37.974;23.708;2023-04-25T13:35:00;4.55;;;1.80;;
80217;SDS011;69533;37.974;23.708;2023-04-25T13:37:27;2.33;;;2.13;;
80217;SDS011;69533;37.974;23.708;2023-04-25T13:39:54;2.72;;;1.90;;
80217;SDS011;69533;37.974;23.708;2023-04-25T13:42:21;2.83;;;1.77;;
80217;SDS011;69533;37.974;23.708;2023-04-25T13:44:48;2.00;;;1.80;;
80217;SDS011;69533;37.974;23.708;2023-04-25T13:47:13;3.80;;;2.00;;
80217;SDS011;69533;37.974;23.708;2023-04-25T13:49:39;2.25;;;1.77;;
80217;SDS011;69533;37.974;23.708;2023-04-25T13:52:05;2.67;;;1.75;;
80217;SDS011;69533;37.974;23.708;2023-04-25T13:54:31;2.50;;;1.80;;
80217;SDS011;69533;37.974;23.708;2023-04-25T13:56:58;2.60;;;1.90;;
80217;SDS011;69533;37.974;23.708;2023-04-25T13:59:25;2.13;;;1.90;;
80217;SDS011;69533;37.974;23.708;2023-04-25T14:01:51;2.83;;;1.73;;
80217;SDS011;69533;37.974;23.708;2023-04-25T14:04:17;2.15;;;1.83;;
80217;SDS011;69533;37.974;23.708;2023-04-25T14:06:42;4.03;;;1.77;;
80217;SDS011;69533;37.974;23.708;2023-04-25T14:09:08;1.60;;;1.50;;
80217;SDS011;69533;37.974;23.708;2023-04-25T14:11:38;2.83;;;1.40;;
80217;SDS011;69533;37.974;23.708;2023-04-25T14:14:04;1.85;;;1.60;;
80217;SDS011;69533;37.974;23.708;2023-04-25T14:16:30;1.60;;;1.50;;
80217;SDS011;69533;37.974;23.708;2023-04-25T14:18:57;1.60;;;1.50;;
80217;SDS011;69533;37.974;23.708;2023-04-25T14:21:23;2.72;;;2.13;;
80217;SDS011;69533;37.974;23.708;2023-04-25T14:23:50;3.47;;;2.03;;
80217;SDS011;69533;37.974;23.708;2023-04-25T14:26:15;2.97;;;2.10;;
80217;SDS011;69533;37.974;23.708;2023-04-25T14:28:41;3.13;;;2.33;;
80217;SDS011;69533;37.974;23.708;2023-04-25T14:31:07;2.25;;;1.83;;
80217;SDS011;69533;37.974;23.708;2023-04-25T14:33:33;2.10;;;1.90;;
80217;SDS011;69533;37.974;23.708;2023-04-25T14:35:59;2.47;;;2.22;;
80217;SDS011;69533;37.974;23.708;2023-04-25T14:38:25;1.83;;;1.73;;
80217;SDS011;69533;37.974;23.708;2023-04-25T14:40:51;1.90;;;1.67;;
80217;SDS011;69533;37.974;23.708;2023-04-25T14:43:19;3.80;;;1.80;;
80217;SDS011;69533;37.974;23.708;2023-04-25T14:45:44;4.45;;;2.00;;
80217;SDS011;69533;37.974;23.708;2023-04-25T14:48:10;2.65;;;1.63;;
80217;SDS011;69533;37.974;23.708;2023-04-25T14:50:36;3.47;;;1.83;;